createdAt,value
2022-09-20T00:00:12.762Z,97717.53
2022-09-20T00:05:16.384Z,97631.91
2022-09-20T00:10:20.214Z,97707.38
2022-09-20T00:15:24.164Z,97683.06
2022-09-20T00:20:28.082Z,97576.75
2022-09-20T00:25:31.617Z,97535.63
2022-09-20T00:30:35.997Z,97609.72
2022-09-20T00:35:39.652Z,97599.38
2022-09-20T00:40:45.488Z,97601.47
2022-09-20T00:45:50.743Z,97634.69
2022-09-20T00:51:02.909Z,97577.06
2022-09-20T00:56:13.123Z,97614.34
2022-09-20T01:01:18.455Z,97459.97
2022-09-20T01:06:22.256Z,97481.41
2022-09-20T01:11:27.210Z,97460.91
2022-09-20T01:16:33.369Z,97671.03
2022-09-20T01:21:37.485Z,97701.66
2022-09-20T01:26:59.220Z,97619.53
2022-09-20T01:32:09.516Z,97690.13
2022-09-20T01:37:28.360Z,97695.75
2022-09-20T01:42:38.364Z,97656.19
2022-09-20T01:48:14.247Z,97680.66
2022-09-20T01:53:49.944Z,97654.22
2022-09-20T01:59:22.526Z,97693.03
2022-09-20T02:04:51.944Z,97674.72
2022-09-20T02:09:55.360Z,97689.00
2022-09-20T02:15:11.096Z,97684.81
2022-09-20T02:20:36.057Z,97701.06
2022-09-20T02:26:16.155Z,97704.63
2022-09-20T02:31:35.754Z,97711.38
2022-09-20T02:36:48.327Z,97719.03
2022-09-20T02:42:16.896Z,97684.59
2022-09-20T02:47:37.494Z,97541.91
2022-09-20T02:52:55.933Z,97715.19
2022-09-20T02:58:32.480Z,97664.19
2022-09-20T03:03:50.299Z,97680.75
2022-09-20T03:09:09.046Z,97717.72
2022-09-20T03:14:28.459Z,97717.81
2022-09-20T03:19:57.705Z,97698.25
2022-09-20T03:25:19.265Z,97688.13
2022-09-20T03:30:25.384Z,97711.72
2022-09-20T03:35:47.076Z,97721.00
2022-09-20T03:41:09.524Z,97725.63
2022-09-20T03:46:28.317Z,97727.47
2022-09-20T03:52:02.830Z,97737.38
2022-09-20T03:57:06.358Z,97732.97
2022-09-20T04:02:37.891Z,97737.53
2022-09-20T04:07:49.573Z,97747.56
2022-09-20T04:13:30.459Z,97745.00
2022-09-20T04:19:02.577Z,97746.34
2022-09-20T04:24:17.269Z,97742.97
2022-09-20T04:29:32.770Z,97720.78
2022-09-20T04:35:13.302Z,97755.72
2022-09-20T04:40:48.768Z,97758.53
2022-09-20T04:46:44.933Z,97717.31
2022-09-20T04:51:52.081Z,97763.22
2022-09-20T04:57:23.411Z,97772.50
2022-09-20T05:03:11.971Z,97756.03
2022-09-20T05:08:33.839Z,97780.16
2022-09-20T05:14:08.623Z,97784.28
2022-09-20T05:19:27.065Z,97788.38
2022-09-20T05:24:55.680Z,97796.75
2022-09-20T05:30:13.780Z,97747.03
2022-09-20T05:35:31.060Z,97800.84
2022-09-20T05:41:01.130Z,97704.13
2022-09-20T05:46:15.276Z,97801.41
2022-09-20T05:51:49.489Z,97813.22
2022-09-20T05:56:57.741Z,97755.78
2022-09-20T06:02:29.025Z,97806.31
2022-09-20T06:07:42.492Z,97765.22
2022-09-20T06:12:59.697Z,97816.94
2022-09-20T06:18:09.045Z,97806.91
2022-09-20T06:23:13.317Z,97668.94
2022-09-20T06:28:23.508Z,97806.63
2022-09-20T06:33:31.277Z,97743.03
2022-09-20T06:39:01.114Z,97798.19
2022-09-20T06:44:06.281Z,97788.28
2022-09-20T06:49:12.589Z,97743.81
2022-09-20T06:54:19.342Z,97689.47
2022-09-20T06:59:22.995Z,97746.81
2022-09-20T07:04:27.489Z,97672.72
2022-09-20T07:09:32.284Z,97777.44
2022-09-20T07:14:36.465Z,97762.94
2022-09-20T07:19:40.214Z,97601.25
2022-09-20T07:24:45.800Z,97757.91
2022-09-20T07:29:49.246Z,97673.56
2022-09-20T07:34:52.949Z,97709.97
2022-09-20T07:39:56.624Z,97677.28
2022-09-20T07:45:02.947Z,97776.69
2022-09-20T07:50:07.894Z,97720.19
2022-09-20T07:55:12.086Z,97738.31
2022-09-20T08:00:16.075Z,97720.91
2022-09-20T08:05:19.486Z,97740.78
2022-09-20T08:10:22.946Z,97752.53
2022-09-20T08:15:26.734Z,97683.69
2022-09-20T08:20:30.179Z,97723.56
2022-09-20T08:25:34.245Z,97775.56
2022-09-20T08:30:37.662Z,97640.06
2022-09-20T08:35:41.160Z,97795.94
2022-09-20T08:40:45.673Z,97612.28
2022-09-20T08:45:49.320Z,97638.88
2022-09-20T08:50:52.915Z,97628.13
2022-09-20T08:56:00.759Z,97802.09
2022-09-20T09:01:04.530Z,97785.00
2022-09-20T09:06:18.365Z,97785.97
2022-09-20T09:11:24.263Z,97791.78
2022-09-20T09:35:32.509Z,97703.53
2022-09-20T11:15:05.464Z,97699.00
2022-09-20T11:20:18.728Z,97720.16
2022-09-20T11:25:26.073Z,97715.47
2022-09-20T11:30:35.085Z,97548.41
2022-09-20T11:35:45.700Z,97724.03
2022-09-20T11:40:58.568Z,97686.13
2022-09-20T11:46:11.587Z,97642.59
2022-09-20T11:51:43.596Z,97710.47
2022-09-20T11:56:53.089Z,97702.97
2022-09-20T12:02:01.133Z,97610.16
2022-09-20T12:07:25.308Z,97688.72
2022-09-20T12:12:45.268Z,97677.03
2022-09-20T12:17:48.641Z,97676.75
2022-09-20T12:22:52.147Z,97678.63
2022-09-20T12:27:55.478Z,97672.25
2022-09-20T12:33:01.939Z,97665.00
2022-09-20T12:38:28.510Z,97668.38
2022-09-20T12:43:33.983Z,97660.81
2022-09-20T12:48:39.115Z,97455.38
2022-09-20T12:53:42.629Z,97607.56
2022-09-20T12:58:46.068Z,97661.34
2022-09-20T13:03:51.080Z,97651.81
2022-09-20T13:09:05.747Z,97655.03
2022-09-20T13:14:18.798Z,97656.50
2022-09-20T13:19:35.245Z,97586.31
2022-09-20T13:24:42.586Z,97608.16
2022-09-20T13:29:46.238Z,97559.94
2022-09-20T13:35:09.294Z,97638.88
2022-09-20T13:40:20.396Z,97637.44
2022-09-20T13:45:24.135Z,97632.16
2022-09-20T13:50:27.616Z,97636.53
2022-09-20T13:55:34.006Z,97629.56
2022-09-20T14:00:39.133Z,97595.84
2022-09-20T14:05:47.979Z,97635.38
2022-09-20T14:11:06.220Z,97432.34
2022-09-20T14:16:10.846Z,97578.78
2022-09-20T14:21:18.789Z,97438.59
2022-09-20T14:26:29.719Z,97603.81
2022-09-20T14:31:35.837Z,97608.94
2022-09-20T14:36:39.355Z,97494.22
2022-09-20T14:41:44.306Z,97596.00
2022-09-20T14:46:47.748Z,97501.13
2022-09-20T14:51:55.103Z,97628.63
2022-09-20T14:56:59.538Z,97601.22
2022-09-20T15:02:03.945Z,97617.88
2022-09-20T15:07:14.018Z,97627.97
2022-09-20T15:12:20.469Z,97485.63
2022-09-20T15:17:24.371Z,97577.06
2022-09-20T15:22:28.337Z,97632.16
2022-09-20T15:27:32.013Z,97624.72
2022-09-20T15:32:35.465Z,97566.19
2022-09-20T15:37:38.983Z,97423.56
2022-09-20T15:42:43.198Z,97630.63
2022-09-20T15:47:47.761Z,97651.63
2022-09-20T15:52:55.767Z,97639.53
2022-09-20T15:58:01.551Z,97618.66
2022-09-20T16:03:05.543Z,97638.53
2022-09-20T16:08:09.196Z,97520.00
2022-09-20T16:13:17.073Z,97565.00
2022-09-20T16:18:39.138Z,97462.41
2022-09-20T16:23:47.638Z,97499.31
2022-09-20T16:28:52.065Z,97569.38
2022-09-20T16:33:55.640Z,97659.56
2022-09-20T16:38:59.667Z,97654.16
2022-09-20T16:44:03.321Z,97663.88
2022-09-20T16:49:10.269Z,97670.06
2022-09-20T16:54:15.908Z,97670.53
2022-09-20T16:59:23.739Z,97651.91
2022-09-20T17:04:27.310Z,97635.13
2022-09-20T17:09:31.814Z,97609.66
2022-09-20T17:14:35.284Z,97536.06
2022-09-20T17:19:40.675Z,97611.09
2022-09-20T17:24:50.862Z,97514.28
2022-09-20T17:29:54.778Z,97634.31
2022-09-20T17:34:58.232Z,97552.97
2022-09-20T17:40:02.920Z,97529.25
2022-09-20T17:45:07.242Z,97724.31
2022-09-20T17:50:15.534Z,97504.03
2022-09-20T17:55:21.536Z,97671.16
2022-09-20T18:00:25.966Z,97613.03
2022-09-20T18:05:39.472Z,97736.94
2022-09-20T18:10:43.570Z,97680.44
2022-09-20T18:15:47.314Z,97609.53
2022-09-20T18:20:51.206Z,97720.38
2022-09-20T18:26:12.992Z,97550.34
2022-09-20T18:31:16.714Z,97596.78
2022-09-20T18:36:24.682Z,97632.66
2022-09-20T18:41:39.248Z,97657.38
2022-09-20T18:46:43.124Z,97700.94
2022-09-20T18:51:48.063Z,97669.69
2022-09-20T18:56:52.015Z,97747.53
2022-09-20T19:02:35.694Z,97593.56
2022-09-20T19:08:08.611Z,97756.72
2022-09-20T19:13:21.042Z,97799.97
2022-09-20T19:18:59.684Z,97813.69
2022-09-20T19:24:06.191Z,97817.13
2022-09-20T19:29:26.153Z,97778.63
2022-09-20T19:34:32.896Z,97782.16
2022-09-20T19:40:06.244Z,97828.19
2022-09-20T19:45:32.091Z,97840.41
2022-09-20T19:50:53.918Z,97843.63
2022-09-20T19:56:22.448Z,97815.88
2022-09-20T20:01:27.354Z,97810.00
2022-09-20T20:06:40.106Z,97845.28
2022-09-20T20:11:55.103Z,97851.00
2022-09-20T20:17:19.759Z,97858.75
2022-09-20T20:22:48.621Z,97876.63
2022-09-20T20:27:52.075Z,97842.13
2022-09-20T20:32:58.984Z,97857.44
2022-09-20T20:38:06.921Z,97902.66
2022-09-20T20:43:10.755Z,97859.50
2022-09-20T20:48:14.412Z,97704.06
2022-09-20T20:53:17.830Z,97916.59
2022-09-20T20:58:35.703Z,97891.81
2022-09-20T21:03:41.978Z,97927.78
2022-09-20T21:08:49.477Z,97809.47
2022-09-20T21:13:55.518Z,97951.00
2022-09-20T21:18:59.562Z,97930.53
2022-09-20T21:24:05.519Z,97822.59
2022-09-20T21:29:11.802Z,97926.94
2022-09-20T21:34:16.790Z,97899.03
2022-09-20T21:39:20.316Z,97912.22
2022-09-20T21:44:23.934Z,97846.09
2022-09-20T21:49:27.366Z,97873.78
2022-09-20T21:54:31.623Z,97854.78
2022-09-20T21:59:35.052Z,97791.81
2022-09-20T22:04:38.839Z,97973.22
2022-09-20T22:09:42.261Z,97973.38
2022-09-20T22:14:45.805Z,97960.97
2022-09-20T22:19:49.809Z,97952.03
2022-09-20T22:24:53.482Z,97922.88
2022-09-20T22:30:01.485Z,97958.91
2022-09-20T22:35:08.602Z,97721.16
2022-09-20T22:40:12.478Z,97894.28
2022-09-20T22:45:16.346Z,97898.56
2022-09-20T22:50:19.972Z,97928.53
2022-09-20T22:55:25.107Z,97914.44
2022-09-20T23:00:28.605Z,97817.03
2022-09-20T23:05:32.113Z,97812.88
2022-09-20T23:10:41.562Z,97769.91
2022-09-20T23:15:45.166Z,97912.31
2022-09-20T23:20:48.910Z,97933.97
2022-09-20T23:25:52.633Z,97882.53
2022-09-20T23:31:04.572Z,97934.28
2022-09-20T23:36:10.092Z,97885.69
2022-09-20T23:41:16.033Z,97923.47
2022-09-20T23:46:21.494Z,97959.03
2022-09-20T23:51:27.185Z,97956.22
2022-09-20T23:56:31.219Z,97805.78
